Minot, ND

5:56 AM CDT on May 28, 2015 (GMT -0500)
Garrison | | Change Station
CLOSE
Current Station
Airport
Location: Garrison,
Elevation: 1909 ft
Nearby Weather Stations

Elev 1909 ft 47.65 °N, 101.44 °W | Updated 4 minutes ago

Overcast
Overcast
56 °F
Feels Like 56 °F
N
6
Wind Variable Wind from South
Gusts mph

Today
High -- | Low -- °F
--% Chance of Precip.
Yesterday
High -- | Low -- °F
Precip. -- in
5:52 AM 9:33 PM
Waxing Gibbous, 75% visible
Pressure 29.87 in
Visibility -9999.0 miles
Clouds
Dew Point 54 °F
Humidity 93%
Rainfall 0.01 in
Snow Depth Not available.
UV Not available.
Pollen 8.70 out of 12
Air Quality Not available.
Flu Activity Sporadic
METAR KN60 281052Z AUTO 18005KT 13/12 A2988 RMK AO1 SLP113 T01330122

More Conditions Fewer Conditions

Pressure 29.87 in
Visibility -9999.0 miles
Clouds
Dew Point 54 °F
Humidity 93%
Rainfall 0.01 in
Snow Depth Not available.
UV Not available.
Pollen 8.70 out of 12
Air Quality Not available.
Flu Activity Sporadic
METAR KN60 281052Z AUTO 18005KT 13/12 A2988 RMK AO1 SLP113 T01330122

More Conditions Fewer Conditions

10-Day Weather Forecast

Almanac

Astronomy

May. 28, 2015 Rise Set
Actual Time
Civil Twilight
Nautical Twilight
Astronomical Twilight
Moon
Length of Visible Light
Length of Day
Tomorrow will be .
, % of the Moon is Illuminated

Today's Extremes

State Highs State Lows

Community

WunderPhotos

Upload Photos

1,824,946 photos uploaded!

WunderBlogs® & News

Nearby

Air Quality

  Air Quality AQ Index Pollutant
Not available.

Snow Depth

Station Depth Elevation

Earthquake Activity

City Distance Mag. Time & Date
Minimum magnitude displayed is 2.5.

Coastal Water Temperatures

Place Temperature

Stations

Nearby Weather Stations

Station Location Temp. Windchill Dew Point Humidity Wind Precip. Elev Updated Type